Time;durP1;ratioP1;P1;durP2;ratioP2;P2;SDS_P1;SDS_P2;PMS_P1;PMS_P2;Temp;Humidity;BMP_temperature;BMP_pressure;BME280_temperature;BME280_humidity;BME280_pressure;Samples;Min_cycle;Max_cycle;Signal;HPM_P1;HPM_P2
2022/06/21 00:00:07;;;;;;;1.63;0.90;;;18.00;99.90;;;;;;5104832;27;20484;-91
2022/06/21 00:02:34;;;;;;;0.73;0.73;;;18.00;99.90;;;;;;5098591;28;20910;-90
2022/06/21 00:05:02;;;;;;;2.70;1.20;;;18.00;99.90;;;;;;5103800;27;20450;-90
2022/06/21 00:07:29;;;;;;;1.10;0.97;;;18.10;99.90;;;;;;5100227;27;20948;-90
2022/06/21 00:09:57;;;;;;;2.00;1.13;;;18.10;99.90;;;;;;5098904;28;21179;-90
2022/06/21 00:12:25;;;;;;;1.40;1.30;;;18.00;99.90;;;;;;5100564;28;20464;-89
2022/06/21 00:14:52;;;;;;;5.80;1.17;;;18.00;99.90;;;;;;5095425;28;20458;-89
2022/06/21 00:17:22;;;;;;;4.10;0.77;;;17.90;99.90;;;;;;5104655;28;21092;-89
2022/06/21 00:19:50;;;;;;;1.70;0.80;;;17.90;99.90;;;;;;5094793;28;20572;-89
2022/06/21 00:22:20;;;;;;;0.60;0.60;;;17.90;99.90;;;;;;5098230;27;20470;-91
2022/06/21 00:24:47;;;;;;;1.93;1.10;;;17.90;99.90;;;;;;5097917;28;20454;-89
2022/06/21 00:27:15;;;;;;;6.30;1.87;;;17.90;99.90;;;;;;5096350;28;20458;-88
2022/06/21 00:29:44;;;;;;;1.53;1.43;;;18.00;99.90;;;;;;5100882;27;20470;-88
2022/06/21 00:32:13;;;;;;;2.90;0.60;;;18.00;99.90;;;;;;5101856;28;21174;-89
2022/06/21 00:34:41;;;;;;;1.33;1.10;;;18.00;99.90;;;;;;5105302;27;20484;-88
2022/06/21 00:37:14;;;;;;;1.27;1.17;;;18.00;99.90;;;;;;5095911;28;20453;-90
2022/06/21 00:39:41;;;;;;;4.00;0.90;;;18.00;99.90;;;;;;5102232;28;20497;-90
2022/06/21 00:42:21;;;;;;;1.73;1.03;;;18.00;99.90;;;;;;5099045;28;20446;-88
2022/06/21 00:45:00;;;;;;;1.13;1.00;;;18.00;99.90;;;;;;5105707;27;20979;-88
2022/06/21 00:47:32;;;;;;;3.53;0.90;;;18.10;99.90;;;;;;5097097;28;20458;-89
2022/06/21 00:50:04;;;;;;;3.70;1.17;;;18.00;99.90;;;;;;5099583;28;20667;-88
2022/06/21 00:52:41;;;;;;;1.80;0.90;;;18.00;99.90;;;;;;5091506;28;20462;-88
2022/06/21 00:55:13;;;;;;;0.90;0.83;;;18.00;99.90;;;;;;5094003;28;21047;-87
2022/06/21 00:57:46;;;;;;;1.03;0.93;;;18.00;99.90;;;;;;5094653;28;20873;-87
2022/06/21 01:00:32;;;;;;;2.27;1.30;;;17.90;99.90;;;;;;5099264;28;20546;-87
2022/06/21 01:03:01;;;;;;;7.90;1.90;;;17.90;99.90;;;;;;5096254;28;20551;-88
2022/06/21 01:05:32;;;;;;;1.27;1.17;;;18.00;99.90;;;;;;5100659;28;20457;-88
2022/06/21 01:07:59;;;;;;;2.20;1.43;;;18.00;99.90;;;;;;5094770;28;20454;-89
2022/06/21 01:10:28;;;;;;;2.40;0.80;;;17.90;99.90;;;;;;5096223;28;20464;-87
2022/06/21 01:12:59;;;;;;;2.07;1.93;;;17.90;99.90;;;;;;5102382;28;21200;-88
2022/06/21 01:15:31;;;;;;;0.80;0.80;;;17.90;99.90;;;;;;5099564;28;20464;-88
2022/06/21 01:18:01;;;;;;;1.37;1.10;;;17.90;99.90;;;;;;5102220;28;20558;-87
2022/06/21 01:20:32;;;;;;;1.17;0.80;;;17.80;99.90;;;;;;5095780;28;21052;-88
2022/06/21 01:23:09;;;;;;;1.20;1.10;;;17.90;99.90;;;;;;5096467;28;20466;-88
2022/06/21 01:25:46;;;;;;;1.70;1.00;;;17.90;99.90;;;;;;5102106;28;20453;-89
2022/06/21 01:28:16;;;;;;;1.83;1.73;;;17.80;99.90;;;;;;5100729;28;21132;-87
2022/06/21 01:30:46;;;;;;;0.90;0.90;;;17.80;99.90;;;;;;5103072;28;20541;-88
2022/06/21 01:33:16;;;;;;;0.80;0.80;;;17.80;99.90;;;;;;5096708;28;20461;-89
2022/06/21 01:35:48;;;;;;;1.33;1.07;;;17.70;99.90;;;;;;5094716;28;20467;-90
2022/06/21 01:38:19;;;;;;;1.20;1.00;;;17.80;99.90;;;;;;5100888;28;20474;-89
2022/06/21 01:40:50;;;;;;;1.30;1.23;;;17.80;99.90;;;;;;5100076;27;20479;-89
2022/06/21 01:43:22;;;;;;;1.07;0.97;;;17.80;99.90;;;;;;5105776;27;20910;-89
2022/06/21 01:45:55;;;;;;;2.93;1.00;;;17.80;99.90;;;;;;5099464;28;21239;-89
2022/06/21 01:48:24;;;;;;;1.70;1.60;;;17.80;99.90;;;;;;5096660;28;20454;-88
2022/06/21 01:50:57;;;;;;;1.73;1.63;;;17.80;99.90;;;;;;5101956;27;20463;-88
2022/06/21 01:53:27;;;;;;;1.10;1.10;;;17.70;99.90;;;;;;5097567;28;20462;-90
2022/06/21 01:55:56;;;;;;;0.80;0.77;;;17.70;99.90;;;;;;5100088;27;20489;-89
2022/06/21 01:58:28;;;;;;;1.13;1.00;;;17.70;99.90;;;;;;5102733;28;20458;-88
2022/06/21 02:01:00;;;;;;;1.83;1.57;;;17.70;99.90;;;;;;5106280;28;20546;-88
2022/06/21 02:03:33;;;;;;;0.80;0.80;;;17.70;99.90;;;;;;5114215;27;20738;-89
2022/06/21 02:06:05;;;;;;;1.07;1.07;;;17.60;99.90;;;;;;5117776;28;20465;-89
2022/06/21 02:08:38;;;;;;;1.20;0.70;;;17.60;99.90;;;;;;5119782;27;20454;-88
2022/06/21 02:11:11;;;;;;;0.80;0.60;;;17.60;99.90;;;;;;5105867;28;20521;-88
2022/06/21 02:13:44;;;;;;;1.20;1.00;;;17.60;99.90;;;;;;5106631;27;20462;-87
2022/06/21 02:16:16;;;;;;;1.60;0.70;;;17.60;99.90;;;;;;5103217;27;20571;-88
2022/06/21 02:18:49;;;;;;;2.20;1.33;;;17.60;99.90;;;;;;5106372;27;20825;-89
2022/06/21 02:21:21;;;;;;;0.70;0.70;;;17.50;99.90;;;;;;5108212;27;20500;-89
2022/06/21 02:23:53;;;;;;;0.63;0.63;;;17.40;99.90;;;;;;5099866;28;20477;-88
2022/06/21 02:26:23;;;;;;;0.80;0.53;;;17.40;99.90;;;;;;5103999;28;20454;-88
2022/06/21 02:28:51;;;;;;;0.83;0.83;;;17.40;99.90;;;;;;5099762;28;20550;-88
2022/06/21 02:31:19;;;;;;;0.70;0.70;;;17.40;99.90;;;;;;5100540;28;21066;-89
2022/06/21 02:33:48;;;;;;;0.60;0.50;;;17.40;99.90;;;;;;5103049;27;21067;-88
2022/06/21 02:36:19;;;;;;;1.07;0.90;;;17.30;99.90;;;;;;5097722;27;20466;-87
2022/06/21 02:38:50;;;;;;;2.87;0.80;;;17.30;99.90;;;;;;5100656;27;20465;-89
2022/06/21 02:41:22;;;;;;;0.70;0.70;;;17.30;99.90;;;;;;5101918;27;21002;-88
2022/06/21 02:43:53;;;;;;;0.80;0.70;;;17.30;99.90;;;;;;5101322;27;21159;-88
2022/06/21 02:46:26;;;;;;;0.60;0.50;;;17.20;99.90;;;;;;5107440;27;20853;-88
2022/06/21 02:48:58;;;;;;;0.67;0.60;;;17.20;99.90;;;;;;5097348;28;21051;-88
2022/06/21 02:51:31;;;;;;;0.70;0.70;;;17.10;99.90;;;;;;5098572;28;21041;-88
2022/06/21 02:54:03;;;;;;;0.80;0.60;;;17.10;99.90;;;;;;5100046;28;20485;-87
2022/06/21 02:56:36;;;;;;;0.70;0.70;;;17.10;99.90;;;;;;5098611;28;20469;-88
2022/06/21 02:59:05;;;;;;;0.93;0.67;;;17.00;99.90;;;;;;5106049;28;20458;-88
2022/06/21 03:01:35;;;;;;;1.00;0.40;;;16.80;99.90;;;;;;5089594;27;20457;-88
2022/06/21 03:04:04;;;;;;;0.60;0.50;;;16.70;99.90;;;;;;5092288;28;22429;-88
2022/06/21 03:06:33;;;;;;;0.60;0.60;;;16.40;99.90;;;;;;5099042;27;20509;-88
2022/06/21 03:09:02;;;;;;;0.40;0.40;;;16.40;99.90;;;;;;5092670;28;20465;-88
2022/06/21 03:11:34;;;;;;;0.43;0.30;;;16.00;99.90;;;;;;5099477;27;20445;-88
2022/06/21 03:14:05;;;;;;;0.97;0.30;;;15.90;99.90;;;;;;5101716;27;20483;-88
2022/06/21 03:16:33;;;;;;;0.60;0.40;;;15.80;99.90;;;;;;5094301;28;20536;-87
2022/06/21 03:19:05;;;;;;;0.50;0.40;;;15.70;99.90;;;;;;5097090;28;20462;-88
2022/06/21 03:21:34;;;;;;;0.60;0.60;;;15.60;99.90;;;;;;5091210;27;20479;-88
2022/06/21 03:24:07;;;;;;;0.40;0.30;;;15.50;99.90;;;;;;5096123;27;20463;-87
2022/06/21 03:26:35;;;;;;;0.40;0.20;;;15.40;99.90;;;;;;5103379;27;20465;-88
2022/06/21 03:29:02;;;;;;;0.40;0.30;;;15.30;99.90;;;;;;5099251;28;20502;-88
2022/06/21 03:31:35;;;;;;;0.60;0.43;;;15.10;99.90;;;;;;5112623;27;20455;-89
2022/06/21 03:34:05;;;;;;;0.60;0.50;;;15.00;99.90;;;;;;5110353;28;20479;-87
2022/06/21 03:36:32;;;;;;;0.43;0.40;;;14.90;99.90;;;;;;5112492;27;20472;-87
2022/06/21 03:39:03;;;;;;;0.77;0.30;;;14.90;99.90;;;;;;5110730;28;20951;-87
2022/06/21 03:41:45;;;;;;;1.33;0.40;;;14.80;99.90;;;;;;5102127;27;21008;-87
2022/06/21 03:44:22;;;;;;;0.40;0.30;;;14.70;99.90;;;;;;5107505;27;21135;-87
2022/06/21 03:46:56;;;;;;;1.47;0.40;;;14.70;99.90;;;;;;5102049;27;20463;-88
2022/06/21 03:49:32;;;;;;;0.90;0.40;;;14.80;99.90;;;;;;5108896;27;20454;-88
2022/06/21 03:52:04;;;;;;;0.40;0.30;;;14.80;99.90;;;;;;5108140;27;20458;-88
2022/06/21 03:54:36;;;;;;;0.63;0.50;;;14.70;99.90;;;;;;5103265;27;20494;-87
2022/06/21 03:57:09;;;;;;;1.27;0.40;;;14.80;99.90;;;;;;5101312;28;20927;-89
2022/06/21 03:59:42;;;;;;;0.40;0.23;;;14.80;99.90;;;;;;5100636;28;20449;-88
2022/06/21 04:02:16;;;;;;;0.40;0.30;;;14.80;99.90;;;;;;5100448;27;20473;-89
2022/06/21 04:04:47;;;;;;;0.40;0.30;;;14.70;99.90;;;;;;5102744;28;20446;-88
2022/06/21 04:07:20;;;;;;;3.27;0.50;;;14.60;99.90;;;;;;5102318;28;20462;-88
2022/06/21 04:09:52;;;;;;;0.50;0.40;;;14.60;99.90;;;;;;5100773;28;20490;-88
2022/06/21 04:12:26;;;;;;;0.40;0.20;;;14.60;99.90;;;;;;5105964;27;20461;-88
2022/06/21 04:14:57;;;;;;;10.83;0.40;;;14.60;99.90;;;;;;5099894;28;20508;-89
2022/06/21 04:17:30;;;;;;;0.70;0.40;;;14.60;99.90;;;;;;5104935;27;20524;-88
2022/06/21 04:20:01;;;;;;;0.40;0.30;;;14.60;99.90;;;;;;5101032;27;21041;-88
2022/06/21 04:22:33;;;;;;;0.40;0.40;;;14.60;99.90;;;;;;5102227;28;20458;-88
2022/06/21 04:25:06;;;;;;;0.70;0.50;;;14.70;99.70;;;;;;5098730;28;20466;-89
2022/06/21 04:27:41;;;;;;;0.40;0.30;;;14.70;99.20;;;;;;5099262;28;20447;-89
2022/06/21 04:30:13;;;;;;;2.83;0.40;;;14.70;99.90;;;;;;5099542;27;20518;-88
2022/06/21 04:32:46;;;;;;;0.70;0.50;;;14.60;99.90;;;;;;5099612;27;20478;-88
2022/06/21 04:35:19;;;;;;;0.50;0.30;;;14.60;99.90;;;;;;5104606;27;20507;-88
2022/06/21 04:37:50;;;;;;;0.40;0.30;;;14.70;99.90;;;;;;5102800;27;20460;-88
2022/06/21 04:40:23;;;;;;;0.40;0.30;;;14.70;99.90;;;;;;5103663;28;20570;-87
2022/06/21 04:42:54;;;;;;;0.40;0.30;;;14.80;99.90;;;;;;5097872;28;20512;-88
2022/06/21 04:45:28;;;;;;;0.40;0.30;;;14.80;99.90;;;;;;5097392;28;20460;-88
2022/06/21 04:48:11;;;;;;;0.40;0.33;;;14.90;99.90;;;;;;5095986;28;21001;-88
2022/06/21 04:50:43;;;;;;;1.57;0.30;;;14.80;99.90;;;;;;5100865;28;20455;-87
2022/06/21 04:53:18;;;;;;;0.40;0.30;;;15.00;99.40;;;;;;5103452;28;20448;-87
2022/06/21 04:55:54;;;;;;;0.50;0.40;;;15.00;98.50;;;;;;5099129;28;20488;-88
2022/06/21 04:58:21;;;;;;;1.00;0.43;;;15.00;97.60;;;;;;5100232;28;20455;-88
2022/06/21 05:00:48;;;;;;;1.00;0.47;;;15.10;98.30;;;;;;5102120;28;20571;-87
2022/06/21 05:03:30;;;;;;;0.47;0.30;;;15.30;96.00;;;;;;5102625;28;20466;-88
2022/06/21 05:05:59;;;;;;;0.50;0.40;;;15.50;98.10;;;;;;5098512;28;20509;-87
2022/06/21 05:08:26;;;;;;;0.40;0.30;;;15.70;97.40;;;;;;5093733;28;20467;-87
2022/06/21 05:10:57;;;;;;;0.50;0.30;;;15.80;97.70;;;;;;5094700;28;20466;-87
2022/06/21 05:13:29;;;;;;;0.40;0.33;;;15.80;98.60;;;;;;5096068;28;20531;-87
2022/06/21 05:16:00;;;;;;;0.40;0.40;;;15.80;97.60;;;;;;5099696;27;20954;-88
2022/06/21 05:18:33;;;;;;;0.40;0.40;;;16.00;99.10;;;;;;5098898;28;20516;-87
2022/06/21 05:21:04;;;;;;;0.50;0.33;;;16.00;98.10;;;;;;5098525;28;20477;-87
2022/06/21 05:23:32;;;;;;;0.40;0.33;;;16.00;97.10;;;;;;5098424;28;20501;-86
2022/06/21 05:26:02;;;;;;;0.60;0.40;;;16.00;94.70;;;;;;5103861;27;20543;-87
2022/06/21 05:28:36;;;;;;;0.50;0.40;;;15.90;94.00;;;;;;5103299;28;20454;-87
2022/06/21 05:31:09;;;;;;;0.40;0.40;;;15.90;94.60;;;;;;5101693;27;20458;-87
2022/06/21 05:33:42;;;;;;;0.50;0.30;;;16.10;95.80;;;;;;5095062;28;20457;-87
2022/06/21 05:36:12;;;;;;;0.50;0.40;;;16.20;94.70;;;;;;5096325;28;20997;-88
2022/06/21 05:38:50;;;;;;;0.40;0.30;;;16.10;94.00;;;;;;5100586;28;20550;-87
2022/06/21 05:41:33;;;;;;;0.50;0.30;;;16.20;94.70;;;;;;5102532;28;20800;-87
2022/06/21 05:44:02;;;;;;;0.90;0.50;;;16.10;94.00;;;;;;5107954;27;20892;-87
2022/06/21 05:46:32;;;;;;;3.43;0.40;;;16.00;92.00;;;;;;5101784;28;20537;-87
2022/06/21 05:49:08;;;;;;;3.37;0.40;;;16.10;93.10;;;;;;5097721;28;20456;-89
2022/06/21 05:51:36;;;;;;;0.50;0.40;;;16.20;92.80;;;;;;5097947;28;20456;-86
2022/06/21 05:54:06;;;;;;;2.33;0.50;;;16.40;92.00;;;;;;5100023;27;20493;-89
2022/06/21 05:56:34;;;;;;;2.40;0.50;;;16.40;92.50;;;;;;5107705;28;20454;-88
2022/06/21 05:59:04;;;;;;;1.07;0.40;;;16.60;90.70;;;;;;5096629;28;20475;-88
2022/06/21 06:01:35;;;;;;;1.00;0.40;;;16.70;91.40;;;;;;5094582;28;20489;-88
2022/06/21 06:04:09;;;;;;;0.50;0.40;;;16.80;90.00;;;;;;5098083;28;20467;-88
2022/06/21 06:06:36;;;;;;;1.10;0.33;;;16.90;88.70;;;;;;5106891;28;20779;-88
2022/06/21 06:09:08;;;;;;;0.50;0.33;;;16.80;89.70;;;;;;5096551;28;20453;-89
2022/06/21 06:14:43;;;;;;;0.50;0.40;;;17.10;90.80;;;;;;5112671;27;21001;-88
2022/06/21 06:17:23;;;;;;;0.60;0.50;;;17.30;87.90;;;;;;5089026;28;20455;-88
2022/06/21 06:19:56;;;;;;;1.23;0.50;;;17.50;88.10;;;;;;5092160;28;21254;-89
2022/06/21 06:22:30;;;;;;;0.50;0.40;;;17.30;88.70;;;;;;5098562;28;20451;-89
2022/06/21 06:25:02;;;;;;;0.70;0.50;;;17.30;89.00;;;;;;5086932;28;20459;-90
2022/06/21 06:27:39;;;;;;;0.50;0.40;;;17.30;86.00;;;;;;5106546;28;20496;-89
2022/06/21 06:30:14;;;;;;;0.50;0.30;;;17.20;84.00;;;;;;5117959;28;20774;-88
2022/06/21 06:32:46;;;;;;;0.40;0.30;;;17.40;88.10;;;;;;5125494;28;20479;-86
2022/06/21 06:35:21;;;;;;;0.50;0.40;;;17.30;83.90;;;;;;5106394;28;20538;-88
2022/06/21 06:37:48;;;;;;;0.50;0.40;;;17.10;87.70;;;;;;5097441;28;21086;-87
2022/06/21 06:40:21;;;;;;;1.80;0.40;;;17.20;87.30;;;;;;5099938;28;20510;-87
2022/06/21 06:42:51;;;;;;;0.50;0.40;;;17.40;85.10;;;;;;5093623;28;20462;-87
2022/06/21 06:45:23;;;;;;;1.00;0.30;;;17.40;82.00;;;;;;5093433;28;20447;-87
2022/06/21 06:47:54;;;;;;;0.50;0.40;;;17.50;83.50;;;;;;5091109;28;20492;-88
2022/06/21 06:50:26;;;;;;;1.50;0.40;;;17.70;83.70;;;;;;5098096;28;20930;-88
2022/06/21 06:52:59;;;;;;;0.50;0.40;;;17.70;80.30;;;;;;5090951;28;20470;-89
2022/06/21 06:55:32;;;;;;;0.50;0.40;;;18.20;82.10;;;;;;5087279;28;20451;-92
2022/06/21 06:58:03;;;;;;;0.50;0.40;;;18.40;84.70;;;;;;5098220;28;20422;-87
2022/06/21 07:00:37;;;;;;;0.50;0.30;;;18.10;80.10;;;;;;5100820;28;20525;-87
2022/06/21 07:03:11;;;;;;;0.50;0.40;;;18.20;83.60;;;;;;5100364;28;20562;-88
2022/06/21 07:05:41;;;;;;;0.60;0.50;;;18.40;83.40;;;;;;5096634;28;20470;-88
2022/06/21 07:08:25;;;;;;;0.80;0.40;;;18.40;80.30;;;;;;5089766;28;20536;-87
2022/06/21 07:10:56;;;;;;;0.40;0.37;;;18.00;77.80;;;;;;5098609;28;20454;-87
2022/06/21 07:13:23;;;;;;;0.80;0.53;;;17.70;82.60;;;;;;5097423;28;20495;-87
2022/06/21 07:16:04;;;;;;;0.40;0.30;;;17.70;81.60;;;;;;5094400;28;20570;-88
2022/06/21 07:18:40;;;;;;;8.10;0.70;;;17.60;79.40;;;;;;5093020;28;20452;-88
2022/06/21 07:21:08;;;;;;;2.10;0.40;;;17.60;81.30;;;;;;5098519;28;20441;-87
2022/06/21 07:23:35;;;;;;;0.50;0.40;;;17.70;78.30;;;;;;5093774;28;20466;-88
2022/06/21 07:26:06;;;;;;;0.80;0.40;;;17.90;77.30;;;;;;5082562;28;20568;-89
2022/06/21 07:28:38;;;;;;;1.00;0.40;;;18.40;79.40;;;;;;5074184;28;20466;-88
2022/06/21 07:31:13;;;;;;;0.40;0.40;;;19.00;82.90;;;;;;5081358;28;20452;-88
2022/06/21 07:33:45;;;;;;;0.60;0.40;;;19.00;75.50;;;;;;5071112;28;20897;-88
2022/06/21 07:36:18;;;;;;;0.60;0.40;;;18.90;77.30;;;;;;5079812;28;20523;-88
2022/06/21 07:38:52;;;;;;;0.70;0.40;;;19.30;77.80;;;;;;5086168;28;20461;-88
2022/06/21 07:41:25;;;;;;;2.00;0.50;;;19.50;75.80;;;;;;5073707;28;20508;-88
2022/06/21 07:43:57;;;;;;;0.60;0.43;;;19.30;73.50;;;;;;5075586;28;20919;-88
2022/06/21 07:46:32;;;;;;;2.20;0.40;;;19.70;73.30;;;;;;5067199;28;20459;-87
2022/06/21 07:49:06;;;;;;;0.70;0.40;;;19.90;74.00;;;;;;5082100;28;20885;-87
2022/06/21 07:51:37;;;;;;;0.50;0.40;;;19.90;76.10;;;;;;5069408;28;20498;-87
2022/06/21 07:54:10;;;;;;;0.67;0.43;;;19.20;73.90;;;;;;5075961;28;20482;-88
2022/06/21 07:56:42;;;;;;;0.50;0.40;;;19.90;75.40;;;;;;5078139;28;20452;-89
2022/06/21 07:59:16;;;;;;;0.60;0.40;;;19.90;73.60;;;;;;5075826;28;20499;-88
2022/06/21 08:07:25;;;;;;;1.10;0.80;;;19.60;78.60;;;;;;5086256;28;20444;-88
2022/06/21 08:09:59;;;;;;;0.93;0.50;;;20.30;76.60;;;;;;5078130;28;20453;-87
2022/06/21 08:12:26;;;;;;;0.53;0.47;;;20.30;74.90;;;;;;5081417;28;21138;-88
2022/06/21 08:14:54;;;;;;;1.00;0.50;;;20.40;76.20;;;;;;5075970;28;20500;-88
2022/06/21 08:17:30;;;;;;;1.20;0.60;;;20.70;76.50;;;;;;5077647;28;20997;-89
2022/06/21 08:20:03;;;;;;;0.60;0.57;;;21.30;79.80;;;;;;5075408;28;20547;-88
2022/06/21 08:22:37;;;;;;;0.63;0.60;;;21.70;77.50;;;;;;5081538;28;20458;-86
2022/06/21 08:25:15;;;;;;;0.70;0.60;;;21.30;76.30;;;;;;5074699;28;20478;-88
2022/06/21 08:27:49;;;;;;;1.53;0.50;;;20.70;79.30;;;;;;5070559;28;20445;-88
2022/06/21 08:30:20;;;;;;;3.53;0.50;;;20.80;77.70;;;;;;5080422;28;20992;-89
2022/06/21 08:32:57;;;;;;;0.50;0.50;;;21.20;79.90;;;;;;5077242;28;21148;-89
2022/06/21 08:35:28;;;;;;;0.50;0.40;;;21.70;82.20;;;;;;5073960;28;20466;-89
2022/06/21 08:38:02;;;;;;;1.83;0.53;;;22.20;83.30;;;;;;5080382;28;21199;-89
2022/06/21 08:41:05;;;;;;;2.20;0.60;;;22.20;76.30;;;;;;5071564;28;20536;-89
2022/06/21 08:44:03;;;;;;;0.63;0.60;;;22.30;79.50;;;;;;5071863;28;20471;-89
2022/06/21 08:47:11;;;;;;;0.90;0.60;;;21.70;80.60;;;;;;5077135;28;20866;-89
2022/06/21 08:50:08;;;;;;;0.60;0.50;;;21.20;79.10;;;;;;5077865;28;20963;-89
2022/06/21 08:52:55;;;;;;;0.70;0.60;;;21.40;80.40;;;;;;5081850;28;20520;-89
2022/06/21 08:55:31;;;;;;;1.53;0.40;;;21.40;80.80;;;;;;5071404;28;20466;-89
2022/06/21 08:58:11;;;;;;;0.50;0.43;;;21.40;78.90;;;;;;5083453;28;20489;-89
2022/06/21 09:00:43;;;;;;;0.57;0.50;;;21.00;80.50;;;;;;5072240;28;21983;-90
2022/06/21 09:03:22;;;;;;;0.73;0.40;;;20.80;82.90;;;;;;5080484;28;20539;-89
2022/06/21 09:06:15;;;;;;;0.50;0.40;;;20.80;81.50;;;;;;5071832;28;20466;-89
2022/06/21 09:09:00;;;;;;;1.90;0.60;;;20.80;83.00;;;;;;5072538;28;20462;-89
2022/06/21 09:11:33;;;;;;;0.67;0.60;;;21.30;89.10;;;;;;5078394;28;21223;-95
2022/06/21 09:14:23;;;;;;;0.53;0.43;;;21.30;81.50;;;;;;5071350;28;20501;-89
2022/06/21 09:16:58;;;;;;;0.70;0.40;;;21.30;75.60;;;;;;5079107;28;21054;-90
2022/06/21 09:19:39;;;;;;;0.50;0.40;;;21.50;73.60;;;;;;5079996;28;21064;-90
2022/06/21 09:22:16;;;;;;;0.50;0.40;;;21.60;76.10;;;;;;5077118;28;20492;-90
2022/06/21 09:24:54;;;;;;;0.60;0.40;;;21.60;75.50;;;;;;5100302;28;20434;-90
2022/06/21 09:27:26;;;;;;;1.17;0.40;;;21.60;68.40;;;;;;5103211;28;20548;-90
2022/06/21 09:30:05;;;;;;;1.53;0.50;;;21.80;65.40;;;;;;5097870;28;20466;-90
2022/06/21 09:32:43;;;;;;;0.57;0.50;;;22.10;69.80;;;;;;5082923;28;20447;-90
2022/06/21 09:35:22;;;;;;;0.90;0.60;;;21.70;70.20;;;;;;5075300;28;20983;-91
2022/06/21 09:38:04;;;;;;;0.50;0.50;;;21.90;73.80;;;;;;5073740;28;20508;-92
2022/06/21 09:40:33;;;;;;;0.50;0.40;;;22.00;70.80;;;;;;5072459;28;20492;-90
2022/06/21 09:43:10;;;;;;;0.50;0.40;;;22.20;68.40;;;;;;5067933;28;20447;-91
2022/06/21 09:45:47;;;;;;;0.60;0.47;;;21.80;70.50;;;;;;5074747;28;20983;-91
2022/06/21 09:48:21;;;;;;;0.63;0.30;;;21.90;72.40;;;;;;5074425;28;20544;-90
2022/06/21 09:50:56;;;;;;;0.70;0.50;;;22.20;70.50;;;;;;5083186;28;20462;-89
2022/06/21 09:53:35;;;;;;;1.23;0.40;;;22.70;70.00;;;;;;5076206;28;20471;-90
2022/06/21 09:56:12;;;;;;;0.60;0.50;;;22.90;67.70;;;;;;5074554;28;20513;-89
2022/06/21 09:58:45;;;;;;;0.93;0.50;;;23.00;72.90;;;;;;5075622;28;20476;-89
2022/06/21 10:01:19;;;;;;;0.70;0.50;;;23.30;75.00;;;;;;5075621;28;20475;-94
2022/06/21 10:03:52;;;;;;;0.50;0.40;;;23.70;67.10;;;;;;5075228;28;20454;-92
2022/06/21 10:06:28;;;;;;;1.00;0.90;;;23.50;66.50;;;;;;5079196;28;20924;-91
2022/06/21 10:09:13;;;;;;;1.33;0.60;;;23.50;69.10;;;;;;5075742;28;20895;-89
2022/06/21 10:11:47;;;;;;;0.50;0.30;;;23.20;67.20;;;;;;5079974;28;20905;-89
2022/06/21 10:14:38;;;;;;;0.53;0.40;;;22.70;64.30;;;;;;5077489;28;20552;-89
2022/06/21 10:17:25;;;;;;;1.17;0.57;;;22.60;64.30;;;;;;5076630;28;20464;-90
2022/06/21 10:20:13;;;;;;;0.80;0.50;;;22.60;64.90;;;;;;5077095;28;20855;-89
2022/06/21 10:22:50;;;;;;;0.70;0.50;;;22.50;67.00;;;;;;5079784;28;20458;-88
2022/06/21 10:25:42;;;;;;;0.60;0.40;;;22.40;73.40;;;;;;5074495;28;20489;-89
2022/06/21 10:28:30;;;;;;;0.50;0.50;;;22.40;68.90;;;;;;5081612;28;20544;-89
2022/06/21 10:31:14;;;;;;;1.17;0.50;;;22.50;71.70;;;;;;5079276;28;20470;-89
2022/06/21 10:34:23;;;;;;;0.50;0.43;;;23.00;67.50;;;;;;5082366;28;20554;-90
2022/06/21 10:37:04;;;;;;;0.50;0.50;;;23.30;70.60;;;;;;5030406;28;20461;-89
2022/06/21 10:39:55;;;;;;;0.60;0.43;;;23.60;71.10;;;;;;5080942;28;20462;-91
2022/06/21 10:42:50;;;;;;;1.20;0.50;;;23.50;73.60;;;;;;5050618;28;20467;-91
2022/06/21 10:45:35;;;;;;;0.80;0.50;;;23.80;67.20;;;;;;5072406;28;20459;-89
2022/06/21 10:48:37;;;;;;;0.87;0.70;;;23.40;63.00;;;;;;5080252;28;20447;-90
2022/06/21 10:51:12;;;;;;;0.50;0.40;;;23.50;68.70;;;;;;5074401;28;20993;-89
2022/06/21 10:54:03;;;;;;;0.70;0.40;;;23.60;68.30;;;;;;5070199;28;20458;-90
2022/06/21 11:02:45;;;;;;;0.50;0.40;;;24.20;65.90;;;;;;5083940;28;21161;-90
2022/06/21 11:05:18;;;;;;;0.53;0.40;;;23.90;62.50;;;;;;5075255;28;20467;-90
2022/06/21 11:07:56;;;;;;;0.50;0.40;;;24.10;69.10;;;;;;5075246;28;20925;-89
2022/06/21 11:10:28;;;;;;;0.60;0.50;;;23.90;66.50;;;;;;5079269;28;20539;-90
2022/06/21 11:13:04;;;;;;;0.90;0.40;;;23.70;64.20;;;;;;5082007;28;21172;-90
2022/06/21 11:15:54;;;;;;;0.87;0.60;;;23.80;67.00;;;;;;5074782;28;20482;-89
2022/06/21 11:18:39;;;;;;;0.70;0.60;;;23.80;66.40;;;;;;5079333;28;20984;-91
2022/06/21 11:21:17;;;;;;;0.60;0.40;;;23.50;63.20;;;;;;5082893;28;20448;-90
2022/06/21 11:23:53;;;;;;;0.60;0.50;;;23.30;66.40;;;;;;5069766;28;20672;-90
2022/06/21 11:26:28;;;;;;;0.70;0.50;;;23.60;66.80;;;;;;5075146;28;20554;-90
2022/06/21 11:29:03;;;;;;;0.60;0.47;;;23.90;68.90;;;;;;5077205;28;20901;-90
2022/06/21 11:31:42;;;;;;;2.77;0.60;;;24.00;61.80;;;;;;5076939;28;20562;-89
2022/06/21 11:34:18;;;;;;;0.70;0.47;;;23.90;64.10;;;;;;5077445;28;20487;-90
2022/06/21 11:36:55;;;;;;;0.80;0.80;;;24.00;67.00;;;;;;5070799;28;20459;-90
2022/06/21 11:39:34;;;;;;;0.93;0.50;;;24.00;68.70;;;;;;5069292;28;20463;-89
2022/06/21 11:42:14;;;;;;;0.60;0.60;;;24.10;63.70;;;;;;5081557;28;20536;-90
2022/06/21 11:44:56;;;;;;;0.80;0.50;;;24.20;65.20;;;;;;5077017;28;21037;-90
2022/06/21 11:47:39;;;;;;;2.50;0.60;;;24.10;63.20;;;;;;5078207;28;20529;-91
2022/06/21 11:50:18;;;;;;;0.50;0.40;;;24.10;63.60;;;;;;5078374;28;20883;-91
2022/06/21 11:53:16;;;;;;;0.60;0.50;;;24.30;61.10;;;;;;5084008;28;20954;-92
2022/06/21 11:55:51;;;;;;;0.70;0.67;;;24.60;59.00;;;;;;5081076;28;20483;-91
2022/06/21 11:58:27;;;;;;;0.50;0.40;;;24.80;63.00;;;;;;5076004;28;21016;-91
2022/06/21 12:01:00;;;;;;;0.60;0.50;;;24.70;62.30;;;;;;5079013;28;21462;-93
2022/06/21 12:03:40;;;;;;;1.57;0.60;;;24.90;60.30;;;;;;5077696;28;20503;-91
2022/06/21 12:06:13;;;;;;;2.70;0.57;;;25.00;61.80;;;;;;5080339;28;20470;-92
2022/06/21 12:08:49;;;;;;;0.60;0.40;;;24.80;60.90;;;;;;5080207;28;20463;-93
2022/06/21 12:11:23;;;;;;;0.63;0.60;;;24.60;61.10;;;;;;5079078;28;20458;-92
2022/06/21 12:14:05;;;;;;;0.53;0.50;;;25.00;61.60;;;;;;5083004;28;20820;-92
2022/06/21 12:16:39;;;;;;;0.60;0.50;;;25.10;59.10;;;;;;5089125;28;20470;-93
2022/06/21 12:19:23;;;;;;;0.60;0.60;;;25.20;59.00;;;;;;5107078;28;20468;-92
2022/06/21 12:21:56;;;;;;;0.53;0.50;;;25.10;59.70;;;;;;5109946;28;20486;-93
2022/06/21 12:24:27;;;;;;;0.57;0.40;;;24.90;59.80;;;;;;5106827;28;20500;-94
2022/06/21 12:26:55;;;;;;;0.50;0.40;;;25.00;58.60;;;;;;5092472;28;20451;-91
2022/06/21 12:29:24;;;;;;;0.50;0.50;;;25.40;59.50;;;;;;5089574;28;20889;-92
2022/06/21 12:31:52;;;;;;;1.00;0.50;;;25.80;58.40;;;;;;5082517;28;20900;-94
2022/06/21 12:34:31;;;;;;;0.60;0.57;;;26.00;60.00;;;;;;5079952;28;20454;-91
2022/06/21 12:37:02;;;;;;;0.70;0.50;;;26.00;56.80;;;;;;5074539;28;20446;-92
2022/06/21 12:39:35;;;;;;;0.83;0.50;;;26.00;57.10;;;;;;5074133;28;20456;-91
2022/06/21 12:42:40;;;;;;;0.50;0.40;;;25.70;57.80;;;;;;5082806;28;20514;-91
2022/06/21 12:45:26;;;;;;;0.60;0.50;;;25.50;56.50;;;;;;5074668;28;21605;-91
2022/06/21 12:48:05;;;;;;;0.50;0.40;;;25.30;56.10;;;;;;5069973;28;20528;-93
2022/06/21 12:50:50;;;;;;;0.50;0.40;;;25.40;57.80;;;;;;5077422;28;20463;-90
2022/06/21 12:53:35;;;;;;;1.70;0.63;;;25.40;56.80;;;;;;5078813;28;20463;-89
2022/06/21 12:56:14;;;;;;;0.60;0.57;;;25.40;53.30;;;;;;5076628;28;20475;-93
2022/06/21 12:59:13;;;;;;;0.60;0.50;;;25.60;54.20;;;;;;5072400;28;20459;-90
2022/06/21 13:01:48;;;;;;;0.90;0.50;;;25.80;50.70;;;;;;5059747;28;20463;-94
2022/06/21 13:04:48;;;;;;;0.50;0.37;;;25.90;52.90;;;;;;5077593;28;21011;-91
2022/06/21 13:07:34;;;;;;;1.57;0.40;;;26.10;52.70;;;;;;5080960;28;20466;-91
2022/06/21 13:10:27;;;;;;;0.60;0.40;;;25.90;55.10;;;;;;5079089;28;20536;-86
2022/06/21 13:13:16;;;;;;;0.80;0.50;;;25.80;51.20;;;;;;5082585;28;20486;-86
2022/06/21 13:16:04;;;;;;;0.70;0.40;;;26.20;50.00;;;;;;5065252;28;20513;-88
2022/06/21 13:19:20;;;;;;;1.13;0.40;;;26.70;48.90;;;;;;5075797;28;20498;-86
2022/06/21 13:22:03;;;;;;;0.73;0.50;;;26.70;47.90;;;;;;5065864;28;20526;-86
2022/06/21 13:24:44;;;;;;;2.40;0.40;;;26.30;50.90;;;;;;5072314;28;20955;-86
2022/06/21 13:27:21;;;;;;;0.73;0.40;;;26.10;49.10;;;;;;5071339;28;20462;-86
2022/06/21 13:30:17;;;;;;;1.03;0.50;;;26.30;46.40;;;;;;5073860;28;20465;-88
2022/06/21 13:32:52;;;;;;;0.50;0.40;;;26.50;45.30;;;;;;5068213;28;21036;-87
2022/06/21 13:35:27;;;;;;;1.00;0.40;;;26.60;47.80;;;;;;5069383;28;20673;-86
2022/06/21 13:38:00;;;;;;;0.50;0.40;;;26.30;48.00;;;;;;5078195;28;20466;-87
2022/06/21 13:40:36;;;;;;;0.60;0.40;;;26.50;48.80;;;;;;5075567;28;20555;-89
2022/06/21 13:43:09;;;;;;;0.50;0.43;;;26.80;47.40;;;;;;5074550;28;20458;-86